Etusivu
METAR-TAF:

METAR-TAF

Lentoasemat :

Niamtougou, Togo

Leveyspiiri: 09-46N, Pituuspiiri: 001-06E, korkeus merenpinnasta: 342 m

Tämänhetkinen sää

Tämä raportti tehtiin 2 tuntia ja 51 minuuttia sitten, kello 21.00 UTC
Tuuli 4 kn koillisesta
Lämpötila 25°C
Kosteus 74%
Ilmanpaine 1016 hPa
Näkyvyys 10 km tai enemmän
ei pilviä alle 1500 m:ssä eikä cumulonimbus-pilviä

METAR: DXNG 202100Z 04004KT CAVOK 25/20 Q1016

Aika: 23:51 (23:51 UTC)

Sääennuste

Tämä raportti tehtiin 51 minuuttia sitten, kello 23.00 UTC
Ennuste voimassa 21. päivästä klo 00 UTC - 21. päivään klo 24 UTC
Tuuli 3 kn eri suunnista
Näkyvyys 10 km tai enemmän
ei pilviä alle 1500 m:ssä eikä cumulonimbus-pilviä

TAF: DXNG 202300Z 2100/2124 VRB03KT CAVOK

Säähavainnot ja -ennusteet yli 4000 lentoasemalta (METAR- ja TAF-raportit).

Käytössä olevat sääasemat on merkitty karttaan keltaisilla ja punaisilla pisteillä.

Aseta hiiri pisteen päälle nähdäksesi sääaseman nimen.

Klikkaa sitten nähdäksesi säähavainnot ja -ennusteet.

Kartan vaihtaminen: klikkaa mustalla rastilla varustettuja vihreitä pisteitä, niin voit zoomata sisään; viivalla varustettua vihreää pistettä, niin voit zoomata ulos tai vihreitä nuolia, niin pääset viereisille kartoille.


METAR-TAF: